sensor_id;sensor_type;location;lat;lon;timestamp;P1;P2;P0
65012;PMS5003;51715;39.432;-77.518;2023-05-21T00:02:25;2;2;
65012;PMS5003;51715;39.432;-77.518;2023-05-21T00:04:52;1;1;
65012;PMS5003;51715;39.432;-77.518;2023-05-21T00:07:21;3;3;
65012;PMS5003;51715;39.432;-77.518;2023-05-21T00:09:49;1;1;
65012;PMS5003;51715;39.432;-77.518;2023-05-21T00:12:17;2;2;
65012;PMS5003;51715;39.432;-77.518;2023-05-21T00:14:45;1;1;
65012;PMS5003;51715;39.432;-77.518;2023-05-21T00:17:13;3;2;
65012;PMS5003;51715;39.432;-77.518;2023-05-21T00:19:42;4;4;
65012;PMS5003;51715;39.432;-77.518;2023-05-21T00:22:10;3;3;
65012;PMS5003;51715;39.432;-77.518;2023-05-21T00:24:39;2;2;
65012;PMS5003;51715;39.432;-77.518;2023-05-21T00:27:11;2;2;
65012;PMS5003;51715;39.432;-77.518;2023-05-21T00:29:40;5;5;
65012;PMS5003;51715;39.432;-77.518;2023-05-21T00:32:08;5;4;
65012;PMS5003;51715;39.432;-77.518;2023-05-21T00:34:37;4;3;
65012;PMS5003;51715;39.432;-77.518;2023-05-21T00:37:05;4;3;
65012;PMS5003;51715;39.432;-77.518;2023-05-21T00:39:33;4;4;
65012;PMS5003;51715;39.432;-77.518;2023-05-21T00:42:02;3;3;
65012;PMS5003;51715;39.432;-77.518;2023-05-21T00:44:31;3;3;
65012;PMS5003;51715;39.432;-77.518;2023-05-21T00:46:59;2;2;
65012;PMS5003;51715;39.432;-77.518;2023-05-21T00:49:28;6;3;
65012;PMS5003;51715;39.432;-77.518;2023-05-21T00:51:57;2;2;
65012;PMS5003;51715;39.432;-77.518;2023-05-21T00:54:25;1;1;
65012;PMS5003;51715;39.432;-77.518;2023-05-21T00:56:55;2;2;
65012;PMS5003;51715;39.432;-77.518;2023-05-21T00:59:24;3;3;
65012;PMS5003;51715;39.432;-77.518;2023-05-21T01:01:53;2;2;
65012;PMS5003;51715;39.432;-77.518;2023-05-21T01:04:22;0;0;
65012;PMS5003;51715;39.432;-77.518;2023-05-21T01:06:50;2;2;
65012;PMS5003;51715;39.432;-77.518;2023-05-21T01:09:19;2;2;
65012;PMS5003;51715;39.432;-77.518;2023-05-21T01:11:48;3;3;
65012;PMS5003;51715;39.432;-77.518;2023-05-21T01:14:18;4;3;
65012;PMS5003;51715;39.432;-77.518;2023-05-21T01:16:49;4;4;
65012;PMS5003;51715;39.432;-77.518;2023-05-21T01:19:19;4;4;
65012;PMS5003;51715;39.432;-77.518;2023-05-21T01:21:50;6;6;
65012;PMS5003;51715;39.432;-77.518;2023-05-21T01:24:21;5;5;
65012;PMS5003;51715;39.432;-77.518;2023-05-21T01:26:50;12;11;
65012;PMS5003;51715;39.432;-77.518;2023-05-21T01:29:18;14;10;
65012;PMS5003;51715;39.432;-77.518;2023-05-21T01:31:51;18;16;
65012;PMS5003;51715;39.432;-77.518;2023-05-21T01:34:27;21;18;
65012;PMS5003;51715;39.432;-77.518;2023-05-21T01:37:06;24;21;
65012;PMS5003;51715;39.432;-77.518;2023-05-21T01:39:41;23;20;
65012;PMS5003;51715;39.432;-77.518;2023-05-21T01:42:16;23;21;
65012;PMS5003;51715;39.432;-77.518;2023-05-21T01:44:45;25;23;
65012;PMS5003;51715;39.432;-77.518;2023-05-21T01:47:16;22;21;
65012;PMS5003;51715;39.432;-77.518;2023-05-21T01:49:46;25;25;
65012;PMS5003;51715;39.432;-77.518;2023-05-21T01:52:15;30;26;
65012;PMS5003;51715;39.432;-77.518;2023-05-21T01:54:44;25;24;
65012;PMS5003;51715;39.432;-77.518;2023-05-21T01:57:13;31;27;
65012;PMS5003;51715;39.432;-77.518;2023-05-21T01:59:42;28;25;
65012;PMS5003;51715;39.432;-77.518;2023-05-21T02:02:10;28;28;
65012;PMS5003;51715;39.432;-77.518;2023-05-21T02:04:38;33;28;
65012;PMS5003;51715;39.432;-77.518;2023-05-21T02:07:07;34;30;
65012;PMS5003;51715;39.432;-77.518;2023-05-21T02:09:36;32;30;
65012;PMS5003;51715;39.432;-77.518;2023-05-21T02:12:05;34;31;
65012;PMS5003;51715;39.432;-77.518;2023-05-21T02:14:34;31;30;
65012;PMS5003;51715;39.432;-77.518;2023-05-21T02:17:03;28;25;
65012;PMS5003;51715;39.432;-77.518;2023-05-21T02:19:32;31;27;
65012;PMS5003;51715;39.432;-77.518;2023-05-21T02:22:00;28;27;
65012;PMS5003;51715;39.432;-77.518;2023-05-21T02:24:28;24;23;
65012;PMS5003;51715;39.432;-77.518;2023-05-21T02:26:56;27;26;
65012;PMS5003;51715;39.432;-77.518;2023-05-21T02:29:25;32;30;
65012;PMS5003;51715;39.432;-77.518;2023-05-21T02:31:53;24;22;
65012;PMS5003;51715;39.432;-77.518;2023-05-21T02:34:22;35;31;
65012;PMS5003;51715;39.432;-77.518;2023-05-21T02:36:50;22;20;
65012;PMS5003;51715;39.432;-77.518;2023-05-21T02:39:17;27;25;
65012;PMS5003;51715;39.432;-77.518;2023-05-21T02:41:46;25;24;
65012;PMS5003;51715;39.432;-77.518;2023-05-21T02:44:15;28;26;
65012;PMS5003;51715;39.432;-77.518;2023-05-21T02:46:43;30;25;
65012;PMS5003;51715;39.432;-77.518;2023-05-21T02:49:12;27;26;
65012;PMS5003;51715;39.432;-77.518;2023-05-21T02:51:40;27;27;
65012;PMS5003;51715;39.432;-77.518;2023-05-21T02:54:08;25;23;
65012;PMS5003;51715;39.432;-77.518;2023-05-21T02:56:36;28;26;
65012;PMS5003;51715;39.432;-77.518;2023-05-21T02:59:05;37;32;
65012;PMS5003;51715;39.432;-77.518;2023-05-21T03:01:34;27;26;
65012;PMS5003;51715;39.432;-77.518;2023-05-21T03:04:02;38;31;
65012;PMS5003;51715;39.432;-77.518;2023-05-21T03:06:31;35;32;
65012;PMS5003;51715;39.432;-77.518;2023-05-21T03:09:00;40;38;
65012;PMS5003;51715;39.432;-77.518;2023-05-21T03:11:28;41;39;
65012;PMS5003;51715;39.432;-77.518;2023-05-21T03:13:56;37;35;
65012;PMS5003;51715;39.432;-77.518;2023-05-21T03:16:25;41;38;
65012;PMS5003;51715;39.432;-77.518;2023-05-21T03:18:53;44;43;
65012;PMS5003;51715;39.432;-77.518;2023-05-21T03:21:22;45;38;
65012;PMS5003;51715;39.432;-77.518;2023-05-21T03:23:50;40;34;
65012;PMS5003;51715;39.432;-77.518;2023-05-21T03:26:19;42;41;
65012;PMS5003;51715;39.432;-77.518;2023-05-21T03:28:47;43;37;
65012;PMS5003;51715;39.432;-77.518;2023-05-21T03:31:16;46;39;
65012;PMS5003;51715;39.432;-77.518;2023-05-21T03:33:44;52;47;
65012;PMS5003;51715;39.432;-77.518;2023-05-21T03:36:12;46;38;
65012;PMS5003;51715;39.432;-77.518;2023-05-21T03:38:40;43;42;
65012;PMS5003;51715;39.432;-77.518;2023-05-21T03:41:09;49;46;
65012;PMS5003;51715;39.432;-77.518;2023-05-21T03:43:38;40;39;
65012;PMS5003;51715;39.432;-77.518;2023-05-21T03:46:11;44;39;
65012;PMS5003;51715;39.432;-77.518;2023-05-21T03:48:40;50;44;
65012;PMS5003;51715;39.432;-77.518;2023-05-21T03:51:09;51;43;
65012;PMS5003;51715;39.432;-77.518;2023-05-21T03:53:36;49;44;
65012;PMS5003;51715;39.432;-77.518;2023-05-21T03:56:05;46;41;
65012;PMS5003;51715;39.432;-77.518;2023-05-21T03:58:33;46;40;
65012;PMS5003;51715;39.432;-77.518;2023-05-21T04:04:00;46;45;
65012;PMS5003;51715;39.432;-77.518;2023-05-21T04:06:29;46;43;
65012;PMS5003;51715;39.432;-77.518;2023-05-21T04:08:57;48;39;
65012;PMS5003;51715;39.432;-77.518;2023-05-21T04:11:25;50;47;
65012;PMS5003;51715;39.432;-77.518;2023-05-21T04:13:53;44;41;
65012;PMS5003;51715;39.432;-77.518;2023-05-21T04:16:22;53;47;
65012;PMS5003;51715;39.432;-77.518;2023-05-21T04:18:50;48;43;
65012;PMS5003;51715;39.432;-77.518;2023-05-21T04:21:19;45;44;
65012;PMS5003;51715;39.432;-77.518;2023-05-21T04:23:48;44;41;
65012;PMS5003;51715;39.432;-77.518;2023-05-21T04:26:17;46;43;
65012;PMS5003;51715;39.432;-77.518;2023-05-21T04:28:45;43;41;
65012;PMS5003;51715;39.432;-77.518;2023-05-21T04:31:13;52;45;
65012;PMS5003;51715;39.432;-77.518;2023-05-21T04:33:42;50;45;
65012;PMS5003;51715;39.432;-77.518;2023-05-21T04:36:10;53;47;
65012;PMS5003;51715;39.432;-77.518;2023-05-21T04:38:39;51;48;
65012;PMS5003;51715;39.432;-77.518;2023-05-21T04:41:07;50;46;
65012;PMS5003;51715;39.432;-77.518;2023-05-21T04:43:37;57;49;
65012;PMS5003;51715;39.432;-77.518;2023-05-21T04:46:04;49;40;
65012;PMS5003;51715;39.432;-77.518;2023-05-21T04:48:32;51;49;
65012;PMS5003;51715;39.432;-77.518;2023-05-21T04:51:01;58;49;
65012;PMS5003;51715;39.432;-77.518;2023-05-21T04:53:30;50;44;
65012;PMS5003;51715;39.432;-77.518;2023-05-21T04:55:58;49;44;
65012;PMS5003;51715;39.432;-77.518;2023-05-21T04:58:26;57;46;
65012;PMS5003;51715;39.432;-77.518;2023-05-21T05:00:54;47;43;
65012;PMS5003;51715;39.432;-77.518;2023-05-21T05:03:22;45;41;
65012;PMS5003;51715;39.432;-77.518;2023-05-21T05:05:50;46;42;
65012;PMS5003;51715;39.432;-77.518;2023-05-21T05:08:19;52;46;
65012;PMS5003;51715;39.432;-77.518;2023-05-21T05:10:48;46;41;
65012;PMS5003;51715;39.432;-77.518;2023-05-21T05:13:16;54;45;
65012;PMS5003;51715;39.432;-77.518;2023-05-21T05:15:44;48;47;
65012;PMS5003;51715;39.432;-77.518;2023-05-21T05:18:12;49;46;
65012;PMS5003;51715;39.432;-77.518;2023-05-21T05:20:40;47;42;
65012;PMS5003;51715;39.432;-77.518;2023-05-21T05:23:08;47;46;
65012;PMS5003;51715;39.432;-77.518;2023-05-21T05:25:37;47;43;
65012;PMS5003;51715;39.432;-77.518;2023-05-21T05:28:05;47;39;
65012;PMS5003;51715;39.432;-77.518;2023-05-21T05:30:34;41;38;
65012;PMS5003;51715;39.432;-77.518;2023-05-21T05:33:03;52;47;
65012;PMS5003;51715;39.432;-77.518;2023-05-21T05:35:31;42;39;
65012;PMS5003;51715;39.432;-77.518;2023-05-21T05:38:00;42;41;
65012;PMS5003;51715;39.432;-77.518;2023-05-21T05:40:29;52;45;
65012;PMS5003;51715;39.432;-77.518;2023-05-21T05:42:57;43;41;
65012;PMS5003;51715;39.432;-77.518;2023-05-21T05:43:07;45;40;
65012;PMS5003;51715;39.432;-77.518;2023-05-21T05:45:36;48;43;
65012;PMS5003;51715;39.432;-77.518;2023-05-21T05:48:04;48;45;
65012;PMS5003;51715;39.432;-77.518;2023-05-21T05:50:32;40;37;
65012;PMS5003;51715;39.432;-77.518;2023-05-21T05:53:01;45;42;
65012;PMS5003;51715;39.432;-77.518;2023-05-21T05:55:29;46;43;
65012;PMS5003;51715;39.432;-77.518;2023-05-21T05:57:58;45;42;
65012;PMS5003;51715;39.432;-77.518;2023-05-21T06:00:26;43;39;
65012;PMS5003;51715;39.432;-77.518;2023-05-21T06:02:55;48;44;
65012;PMS5003;51715;39.432;-77.518;2023-05-21T06:05:23;41;39;
65012;PMS5003;51715;39.432;-77.518;2023-05-21T06:07:51;43;41;
65012;PMS5003;51715;39.432;-77.518;2023-05-21T06:10:20;44;37;
65012;PMS5003;51715;39.432;-77.518;2023-05-21T06:12:49;44;41;
65012;PMS5003;51715;39.432;-77.518;2023-05-21T06:15:17;43;40;
65012;PMS5003;51715;39.432;-77.518;2023-05-21T06:17:45;50;46;
65012;PMS5003;51715;39.432;-77.518;2023-05-21T06:20:14;41;40;
65012;PMS5003;51715;39.432;-77.518;2023-05-21T06:22:43;49;44;
65012;PMS5003;51715;39.432;-77.518;2023-05-21T06:25:10;39;35;
65012;PMS5003;51715;39.432;-77.518;2023-05-21T06:27:39;44;39;
65012;PMS5003;51715;39.432;-77.518;2023-05-21T06:30:08;49;43;
65012;PMS5003;51715;39.432;-77.518;2023-05-21T06:32:36;42;39;
65012;PMS5003;51715;39.432;-77.518;2023-05-21T06:35:05;55;41;
65012;PMS5003;51715;39.432;-77.518;2023-05-21T06:37:33;42;36;
65012;PMS5003;51715;39.432;-77.518;2023-05-21T06:40:01;53;47;
65012;PMS5003;51715;39.432;-77.518;2023-05-21T06:42:30;47;40;
65012;PMS5003;51715;39.432;-77.518;2023-05-21T06:45:03;37;36;
65012;PMS5003;51715;39.432;-77.518;2023-05-21T06:47:32;43;40;
65012;PMS5003;51715;39.432;-77.518;2023-05-21T06:50:00;50;42;
65012;PMS5003;51715;39.432;-77.518;2023-05-21T06:52:28;37;36;
65012;PMS5003;51715;39.432;-77.518;2023-05-21T06:54:56;44;41;
65012;PMS5003;51715;39.432;-77.518;2023-05-21T06:57:26;52;41;
65012;PMS5003;51715;39.432;-77.518;2023-05-21T06:59:55;42;38;
65012;PMS5003;51715;39.432;-77.518;2023-05-21T07:02:24;41;34;
65012;PMS5003;51715;39.432;-77.518;2023-05-21T07:04:52;40;36;
65012;PMS5003;51715;39.432;-77.518;2023-05-21T07:07:20;37;33;
65012;PMS5003;51715;39.432;-77.518;2023-05-21T07:09:48;39;35;
65012;PMS5003;51715;39.432;-77.518;2023-05-21T07:12:16;39;38;
65012;PMS5003;51715;39.432;-77.518;2023-05-21T07:14:44;39;35;
65012;PMS5003;51715;39.432;-77.518;2023-05-21T07:17:12;34;33;
65012;PMS5003;51715;39.432;-77.518;2023-05-21T07:19:40;36;33;
65012;PMS5003;51715;39.432;-77.518;2023-05-21T07:22:08;30;29;
65012;PMS5003;51715;39.432;-77.518;2023-05-21T07:24:37;37;34;
65012;PMS5003;51715;39.432;-77.518;2023-05-21T07:27:05;33;33;
65012;PMS5003;51715;39.432;-77.518;2023-05-21T07:29:34;37;33;
65012;PMS5003;51715;39.432;-77.518;2023-05-21T07:32:07;35;30;
65012;PMS5003;51715;39.432;-77.518;2023-05-21T07:34:35;35;34;
65012;PMS5003;51715;39.432;-77.518;2023-05-21T07:37:04;31;30;
65012;PMS5003;51715;39.432;-77.518;2023-05-21T07:39:32;34;33;
65012;PMS5003;51715;39.432;-77.518;2023-05-21T07:42:01;31;29;
65012;PMS5003;51715;39.432;-77.518;2023-05-21T07:44:29;33;29;
65012;PMS5003;51715;39.432;-77.518;2023-05-21T07:46:57;27;26;
65012;PMS5003;51715;39.432;-77.518;2023-05-21T07:49:26;32;29;
65012;PMS5003;51715;39.432;-77.518;2023-05-21T07:51:54;29;28;
65012;PMS5003;51715;39.432;-77.518;2023-05-21T07:54:22;31;29;
65012;PMS5003;51715;39.432;-77.518;2023-05-21T07:56:50;32;29;
65012;PMS5003;51715;39.432;-77.518;2023-05-21T07:59:18;26;23;
65012;PMS5003;51715;39.432;-77.518;2023-05-21T08:01:46;29;26;
65012;PMS5003;51715;39.432;-77.518;2023-05-21T08:04:14;32;28;
65012;PMS5003;51715;39.432;-77.518;2023-05-21T08:06:42;29;28;
65012;PMS5003;51715;39.432;-77.518;2023-05-21T08:09:11;35;30;
65012;PMS5003;51715;39.432;-77.518;2023-05-21T08:11:39;27;25;
65012;PMS5003;51715;39.432;-77.518;2023-05-21T08:14:08;34;26;
65012;PMS5003;51715;39.432;-77.518;2023-05-21T08:16:36;31;28;
65012;PMS5003;51715;39.432;-77.518;2023-05-21T08:19:04;33;28;
65012;PMS5003;51715;39.432;-77.518;2023-05-21T08:21:32;29;25;
65012;PMS5003;51715;39.432;-77.518;2023-05-21T08:24:01;27;24;
65012;PMS5003;51715;39.432;-77.518;2023-05-21T08:26:30;27;24;
65012;PMS5003;51715;39.432;-77.518;2023-05-21T08:28:59;30;28;
65012;PMS5003;51715;39.432;-77.518;2023-05-21T08:31:27;28;28;
65012;PMS5003;51715;39.432;-77.518;2023-05-21T08:33:55;29;24;
65012;PMS5003;51715;39.432;-77.518;2023-05-21T08:36:23;23;18;
65012;PMS5003;51715;39.432;-77.518;2023-05-21T08:38:52;26;26;
65012;PMS5003;51715;39.432;-77.518;2023-05-21T08:41:20;26;23;
65012;PMS5003;51715;39.432;-77.518;2023-05-21T08:43:50;27;26;
65012;PMS5003;51715;39.432;-77.518;2023-05-21T08:46:23;23;23;
65012;PMS5003;51715;39.432;-77.518;2023-05-21T08:48:54;33;30;
65012;PMS5003;51715;39.432;-77.518;2023-05-21T08:51:22;22;22;
65012;PMS5003;51715;39.432;-77.518;2023-05-21T08:53:50;25;23;
65012;PMS5003;51715;39.432;-77.518;2023-05-21T08:56:18;28;26;
65012;PMS5003;51715;39.432;-77.518;2023-05-21T08:58:49;31;27;
65012;PMS5003;51715;39.432;-77.518;2023-05-21T09:01:18;26;22;
65012;PMS5003;51715;39.432;-77.518;2023-05-21T09:03:46;27;22;
65012;PMS5003;51715;39.432;-77.518;2023-05-21T09:06:18;24;23;
65012;PMS5003;51715;39.432;-77.518;2023-05-21T09:08:48;29;26;
65012;PMS5003;51715;39.432;-77.518;2023-05-21T09:11:25;27;26;
65012;PMS5003;51715;39.432;-77.518;2023-05-21T09:13:53;24;24;
65012;PMS5003;51715;39.432;-77.518;2023-05-21T09:16:23;28;26;
65012;PMS5003;51715;39.432;-77.518;2023-05-21T09:18:52;26;24;
65012;PMS5003;51715;39.432;-77.518;2023-05-21T09:21:22;32;26;
65012;PMS5003;51715;39.432;-77.518;2023-05-21T09:23:53;33;28;
65012;PMS5003;51715;39.432;-77.518;2023-05-21T09:26:23;25;25;
65012;PMS5003;51715;39.432;-77.518;2023-05-21T09:28:55;24;22;
65012;PMS5003;51715;39.432;-77.518;2023-05-21T09:31:26;34;29;
65012;PMS5003;51715;39.432;-77.518;2023-05-21T09:33:55;29;26;
65012;PMS5003;51715;39.432;-77.518;2023-05-21T09:36:23;27;25;
65012;PMS5003;51715;39.432;-77.518;2023-05-21T09:38:52;26;21;
65012;PMS5003;51715;39.432;-77.518;2023-05-21T09:41:21;27;24;
65012;PMS5003;51715;39.432;-77.518;2023-05-21T09:43:59;26;26;
65012;PMS5003;51715;39.432;-77.518;2023-05-21T09:46:36;34;31;
65012;PMS5003;51715;39.432;-77.518;2023-05-21T09:49:04;32;26;
65012;PMS5003;51715;39.432;-77.518;2023-05-21T09:51:32;27;24;
65012;PMS5003;51715;39.432;-77.518;2023-05-21T09:54:04;28;25;
65012;PMS5003;51715;39.432;-77.518;2023-05-21T09:56:32;27;25;
65012;PMS5003;51715;39.432;-77.518;2023-05-21T09:59:02;26;25;
65012;PMS5003;51715;39.432;-77.518;2023-05-21T10:01:31;29;27;
65012;PMS5003;51715;39.432;-77.518;2023-05-21T10:04:01;24;24;
65012;PMS5003;51715;39.432;-77.518;2023-05-21T10:06:33;29;23;
65012;PMS5003;51715;39.432;-77.518;2023-05-21T10:09:04;22;20;
65012;PMS5003;51715;39.432;-77.518;2023-05-21T10:11:36;26;26;
65012;PMS5003;51715;39.432;-77.518;2023-05-21T10:14:06;36;30;
65012;PMS5003;51715;39.432;-77.518;2023-05-21T10:16:39;26;22;
65012;PMS5003;51715;39.432;-77.518;2023-05-21T10:19:08;30;28;
65012;PMS5003;51715;39.432;-77.518;2023-05-21T10:21:37;32;27;
65012;PMS5003;51715;39.432;-77.518;2023-05-21T10:24:07;32;28;
65012;PMS5003;51715;39.432;-77.518;2023-05-21T10:26:37;25;25;
65012;PMS5003;51715;39.432;-77.518;2023-05-21T10:29:07;30;28;
65012;PMS5003;51715;39.432;-77.518;2023-05-21T10:31:37;27;23;
65012;PMS5003;51715;39.432;-77.518;2023-05-21T10:34:05;26;23;
65012;PMS5003;51715;39.432;-77.518;2023-05-21T10:36:34;25;25;
65012;PMS5003;51715;39.432;-77.518;2023-05-21T10:39:03;23;23;
65012;PMS5003;51715;39.432;-77.518;2023-05-21T10:41:34;25;23;
65012;PMS5003;51715;39.432;-77.518;2023-05-21T10:44:14;26;23;
65012;PMS5003;51715;39.432;-77.518;2023-05-21T10:46:56;23;23;
65012;PMS5003;51715;39.432;-77.518;2023-05-21T10:49:44;25;21;
65012;PMS5003;51715;39.432;-77.518;2023-05-21T10:52:33;23;20;
65012;PMS5003;51715;39.432;-77.518;2023-05-21T10:55:20;23;21;
65012;PMS5003;51715;39.432;-77.518;2023-05-21T10:58:53;30;26;
65012;PMS5003;51715;39.432;-77.518;2023-05-21T11:01:35;20;19;
65012;PMS5003;51715;39.432;-77.518;2023-05-21T11:04:05;20;19;
65012;PMS5003;51715;39.432;-77.518;2023-05-21T11:06:33;21;20;
65012;PMS5003;51715;39.432;-77.518;2023-05-21T11:09:10;24;20;
65012;PMS5003;51715;39.432;-77.518;2023-05-21T11:11:40;24;21;
65012;PMS5003;51715;39.432;-77.518;2023-05-21T11:14:26;24;20;
65012;PMS5003;51715;39.432;-77.518;2023-05-21T11:16:57;23;21;
65012;PMS5003;51715;39.432;-77.518;2023-05-21T11:19:38;20;20;
65012;PMS5003;51715;39.432;-77.518;2023-05-21T11:22:08;19;19;
65012;PMS5003;51715;39.432;-77.518;2023-05-21T11:24:47;23;21;
65012;PMS5003;51715;39.432;-77.518;2023-05-21T11:27:40;24;20;
65012;PMS5003;51715;39.432;-77.518;2023-05-21T11:30:09;22;22;
65012;PMS5003;51715;39.432;-77.518;2023-05-21T11:33:16;22;20;
65012;PMS5003;51715;39.432;-77.518;2023-05-21T11:35:56;30;21;
65012;PMS5003;51715;39.432;-77.518;2023-05-21T11:38:27;22;20;
65012;PMS5003;51715;39.432;-77.518;2023-05-21T11:41:01;25;25;
65012;PMS5003;51715;39.432;-77.518;2023-05-21T11:43:31;23;22;
65012;PMS5003;51715;39.432;-77.518;2023-05-21T11:45:59;21;17;
65012;PMS5003;51715;39.432;-77.518;2023-05-21T11:48:28;25;21;
65012;PMS5003;51715;39.432;-77.518;2023-05-21T11:50:58;27;26;
65012;PMS5003;51715;39.432;-77.518;2023-05-21T11:53:28;25;20;
65012;PMS5003;51715;39.432;-77.518;2023-05-21T11:55:56;24;20;
65012;PMS5003;51715;39.432;-77.518;2023-05-21T11:58:24;21;19;
65012;PMS5003;51715;39.432;-77.518;2023-05-21T12:00:56;30;25;
65012;PMS5003;51715;39.432;-77.518;2023-05-21T12:03:24;24;21;
65012;PMS5003;51715;39.432;-77.518;2023-05-21T12:05:53;29;25;
65012;PMS5003;51715;39.432;-77.518;2023-05-21T12:08:30;21;20;
65012;PMS5003;51715;39.432;-77.518;2023-05-21T12:10:58;26;25;
65012;PMS5003;51715;39.432;-77.518;2023-05-21T12:13:27;23;23;
65012;PMS5003;51715;39.432;-77.518;2023-05-21T12:15:56;23;21;
65012;PMS5003;51715;39.432;-77.518;2023-05-21T12:18:25;19;19;
65012;PMS5003;51715;39.432;-77.518;2023-05-21T12:20:55;22;22;
65012;PMS5003;51715;39.432;-77.518;2023-05-21T12:23:24;20;18;
65012;PMS5003;51715;39.432;-77.518;2023-05-21T12:25:53;17;17;
65012;PMS5003;51715;39.432;-77.518;2023-05-21T12:28:22;17;16;
65012;PMS5003;51715;39.432;-77.518;2023-05-21T12:30:50;17;14;
65012;PMS5003;51715;39.432;-77.518;2023-05-21T12:33:19;20;19;
65012;PMS5003;51715;39.432;-77.518;2023-05-21T12:35:48;21;19;
65012;PMS5003;51715;39.432;-77.518;2023-05-21T12:38:17;27;23;
65012;PMS5003;51715;39.432;-77.518;2023-05-21T12:40:45;20;19;
65012;PMS5003;51715;39.432;-77.518;2023-05-21T12:43:13;21;18;
65012;PMS5003;51715;39.432;-77.518;2023-05-21T12:45:41;23;20;
65012;PMS5003;51715;39.432;-77.518;2023-05-21T12:48:10;21;20;
65012;PMS5003;51715;39.432;-77.518;2023-05-21T12:50:38;24;19;
65012;PMS5003;51715;39.432;-77.518;2023-05-21T12:53:08;23;22;
65012;PMS5003;51715;39.432;-77.518;2023-05-21T12:55:36;28;23;
65012;PMS5003;51715;39.432;-77.518;2023-05-21T12:58:05;20;19;
65012;PMS5003;51715;39.432;-77.518;2023-05-21T13:00:33;22;21;
65012;PMS5003;51715;39.432;-77.518;2023-05-21T13:03:02;21;18;
65012;PMS5003;51715;39.432;-77.518;2023-05-21T13:05:31;16;16;
65012;PMS5003;51715;39.432;-77.518;2023-05-21T13:07:59;22;20;
65012;PMS5003;51715;39.432;-77.518;2023-05-21T13:10:27;19;18;
65012;PMS5003;51715;39.432;-77.518;2023-05-21T13:12:56;20;19;
65012;PMS5003;51715;39.432;-77.518;2023-05-21T13:15:25;21;18;
65012;PMS5003;51715;39.432;-77.518;2023-05-21T13:17:53;22;21;
65012;PMS5003;51715;39.432;-77.518;2023-05-21T13:20:23;19;18;
65012;PMS5003;51715;39.432;-77.518;2023-05-21T13:22:52;18;17;
65012;PMS5003;51715;39.432;-77.518;2023-05-21T13:25:20;14;14;
65012;PMS5003;51715;39.432;-77.518;2023-05-21T13:27:50;18;17;
65012;PMS5003;51715;39.432;-77.518;2023-05-21T13:30:20;15;15;
65012;PMS5003;51715;39.432;-77.518;2023-05-21T13:32:48;22;22;
65012;PMS5003;51715;39.432;-77.518;2023-05-21T13:35:17;20;17;
65012;PMS5003;51715;39.432;-77.518;2023-05-21T13:37:46;16;15;
65012;PMS5003;51715;39.432;-77.518;2023-05-21T13:40:14;17;17;
65012;PMS5003;51715;39.432;-77.518;2023-05-21T13:42:44;14;14;
65012;PMS5003;51715;39.432;-77.518;2023-05-21T13:45:13;21;19;
65012;PMS5003;51715;39.432;-77.518;2023-05-21T13:47:44;17;17;
65012;PMS5003;51715;39.432;-77.518;2023-05-21T13:50:14;18;16;
65012;PMS5003;51715;39.432;-77.518;2023-05-21T13:52:42;19;17;
65012;PMS5003;51715;39.432;-77.518;2023-05-21T13:55:10;14;14;
65012;PMS5003;51715;39.432;-77.518;2023-05-21T13:57:38;16;13;
65012;PMS5003;51715;39.432;-77.518;2023-05-21T14:00:07;12;12;
65012;PMS5003;51715;39.432;-77.518;2023-05-21T14:02:36;16;15;
65012;PMS5003;51715;39.432;-77.518;2023-05-21T14:05:05;15;15;
65012;PMS5003;51715;39.432;-77.518;2023-05-21T14:07:34;17;17;
65012;PMS5003;51715;39.432;-77.518;2023-05-21T14:10:03;18;16;
65012;PMS5003;51715;39.432;-77.518;2023-05-21T14:12:33;15;14;
65012;PMS5003;51715;39.432;-77.518;2023-05-21T14:15:02;14;14;
65012;PMS5003;51715;39.432;-77.518;2023-05-21T14:17:31;21;17;
65012;PMS5003;51715;39.432;-77.518;2023-05-21T14:19:59;18;13;
65012;PMS5003;51715;39.432;-77.518;2023-05-21T14:22:27;13;13;
65012;PMS5003;51715;39.432;-77.518;2023-05-21T14:24:55;15;15;
65012;PMS5003;51715;39.432;-77.518;2023-05-21T14:27:24;17;15;
65012;PMS5003;51715;39.432;-77.518;2023-05-21T14:29:53;14;12;
65012;PMS5003;51715;39.432;-77.518;2023-05-21T14:32:21;17;12;
65012;PMS5003;51715;39.432;-77.518;2023-05-21T14:34:49;20;18;
65012;PMS5003;51715;39.432;-77.518;2023-05-21T14:37:18;14;14;
65012;PMS5003;51715;39.432;-77.518;2023-05-21T14:39:46;15;15;
65012;PMS5003;51715;39.432;-77.518;2023-05-21T14:42:15;16;15;
65012;PMS5003;51715;39.432;-77.518;2023-05-21T14:44:44;13;13;
65012;PMS5003;51715;39.432;-77.518;2023-05-21T14:47:13;16;14;
65012;PMS5003;51715;39.432;-77.518;2023-05-21T14:49:41;14;13;
65012;PMS5003;51715;39.432;-77.518;2023-05-21T14:52:08;14;14;
65012;PMS5003;51715;39.432;-77.518;2023-05-21T14:54:37;16;15;
65012;PMS5003;51715;39.432;-77.518;2023-05-21T14:57:05;17;15;
65012;PMS5003;51715;39.432;-77.518;2023-05-21T14:59:33;13;13;
65012;PMS5003;51715;39.432;-77.518;2023-05-21T15:02:02;14;14;
65012;PMS5003;51715;39.432;-77.518;2023-05-21T15:04:32;14;13;
65012;PMS5003;51715;39.432;-77.518;2023-05-21T15:07:01;14;12;
65012;PMS5003;51715;39.432;-77.518;2023-05-21T15:09:31;18;17;
65012;PMS5003;51715;39.432;-77.518;2023-05-21T15:12:00;14;12;
65012;PMS5003;51715;39.432;-77.518;2023-05-21T15:14:29;15;15;
65012;PMS5003;51715;39.432;-77.518;2023-05-21T15:16:57;14;14;
65012;PMS5003;51715;39.432;-77.518;2023-05-21T15:19:26;10;10;
65012;PMS5003;51715;39.432;-77.518;2023-05-21T15:21:56;12;12;
65012;PMS5003;51715;39.432;-77.518;2023-05-21T15:24:24;10;10;
65012;PMS5003;51715;39.432;-77.518;2023-05-21T15:26:53;17;15;
65012;PMS5003;51715;39.432;-77.518;2023-05-21T15:29:22;13;12;
65012;PMS5003;51715;39.432;-77.518;2023-05-21T15:31:50;16;14;
65012;PMS5003;51715;39.432;-77.518;2023-05-21T15:34:18;13;13;
65012;PMS5003;51715;39.432;-77.518;2023-05-21T15:36:46;11;11;
65012;PMS5003;51715;39.432;-77.518;2023-05-21T15:39:15;11;10;
65012;PMS5003;51715;39.432;-77.518;2023-05-21T15:41:43;12;12;
65012;PMS5003;51715;39.432;-77.518;2023-05-21T15:44:12;13;12;
65012;PMS5003;51715;39.432;-77.518;2023-05-21T15:46:40;16;16;
65012;PMS5003;51715;39.432;-77.518;2023-05-21T15:49:09;14;14;
65012;PMS5003;51715;39.432;-77.518;2023-05-21T15:51:37;12;12;
65012;PMS5003;51715;39.432;-77.518;2023-05-21T15:54:05;12;12;
65012;PMS5003;51715;39.432;-77.518;2023-05-21T15:56:34;13;13;
65012;PMS5003;51715;39.432;-77.518;2023-05-21T15:59:02;9;9;
65012;PMS5003;51715;39.432;-77.518;2023-05-21T16:01:32;11;10;
65012;PMS5003;51715;39.432;-77.518;2023-05-21T16:04:01;13;11;
65012;PMS5003;51715;39.432;-77.518;2023-05-21T16:06:30;10;10;